Terminal Aerodrome Forecast
Issued by NWS

Home | Current Version | Previous Version | Text Only | Print | Product List | Glossary On
Versions: 1 2 3 4 5 6 7 8 9 10 11 12 13 14 15 16 17 18 19 20 21 22 23
000
FTUS41 KOKX 241700
TAFSWF
TAF
KSWF 241733Z 2418/2524 04010KT P6SM SCT030 SCT050
     FM242300 35006KT P6SM BKN050
     FM250100 VRB03KT P6SM BKN050
     FM251600 26006KT P6SM FEW050
      AMD NOT SKED=

USA.gov is the U.S. government's official web portal to all federal, state and local government web resources and services.